Temp: 12.1°C   Baro: 993.2mb
  Wind: 4.0mph   Dir: SSE (147°)
  Rain: 0.6mm (0.0mm/hr)
  Solar: 0W/m2  Hum: 74%
 
Bath Spa Weather Station Historical Data
Daily Summary for August 22, 2019 Units:  Both    English   Metric
Daily Weekly Monthly Yearly Custom
  High: Low: Average:
Temperature: 59.9 °F /  15.5 °C 44.8 °F /  7.1 °C 50.9 °F /  10.5 °C
Dew Point: 49.1 °F /  9.5 °C 42.3 °F /  5.7 °C 45.7 °F /  7.6 °C
Humidity: 94% 62% 83%
Wind Speed: 6.1mph /  9.8km/h - 0.8mph /  1.3km/h
Wind Gust: 11mph /  17.7km/h - -
Wind- - WSW
Pressure: 30.25 in /  1024.3 hPa 30.14 in /  1020.5 hPa -
Precipitation: 0.00 in /  0 mm    
Historical Graphs
 
 
Tabular Data for August 22, 2019
Time Temperature Dew Point Pressure Wind Wind Speed Wind Gust Humidity Rainfall Rate (Hourly) solar
00:04 48 °F /  8.9 °C 45 °F /  7.2 °C 30.22in /  1023.2hPa NNW 0.9mph /  1.4km/h 3mph /  4.8km/h 89% 0.00in /  0mm 0 W/m2
00:09 48 °F /  8.9 °C 45 °F /  7.2 °C 30.22in /  1023.2hPa Calm   1mph /  1.6km/h 89% 0.00in /  0mm 0 W/m2
00:14 48 °F /  8.9 °C 45 °F /  7.2 °C 30.22in /  1023.2hPa Calm     89% 0.00in /  0mm 0 W/m2
00:19 47.9 °F /  8.8 °C 45 °F /  7.2 °C 30.22in /  1023.2hPa Calm     89.2% 0.00in /  0mm 0 W/m2
00:24 47.8 °F /  8.8 °C 45 °F /  7.2 °C 30.22in /  1023.2hPa Calm     89.8% 0.00in /  0mm 0 W/m2
00:29 47.8 °F /  8.8 °C 45 °F /  7.2 °C 30.22in /  1023.2hPa Calm     90% 0.00in /  0mm 0 W/m2
00:34 47.8 °F /  8.8 °C 45 °F /  7.2 °C 30.22in /  1023.2hPa Calm     90% 0.00in /  0mm 0 W/m2
00:39 47.7 °F /  8.7 °C 45 °F /  7.2 °C 30.22in /  1023.2hPa Calm     90% 0.00in /  0mm 0 W/m2
00:44 47.7 °F /  8.7 °C 45 °F /  7.2 °C 30.22in /  1023.2hPa Calm     90% 0.00in /  0mm 0 W/m2
00:49 47.6 °F /  8.7 °C 44.9 °F /  7.2 °C 30.22in /  1023.2hPa Calm     90% 0.00in /  0mm 0 W/m2
00:54 47.2 °F /  8.4 °C 44.5 °F /  6.9 °C 30.22in /  1023.2hPa NNW 0.7mph /  1.1km/h 2mph /  3.2km/h 90% 0.00in /  0mm 0 W/m2
00:59 47 °F /  8.3 °C 44.3 °F /  6.8 °C 30.22in /  1023.2hPa NNW 0.7mph /  1.1km/h 3mph /  4.8km/h 90% 0.00in /  0mm 0 W/m2
01:04 46.9 °F /  8.3 °C 44.2 °F /  6.8 °C 30.22in /  1023.2hPa NNW 0.1mph /  0.2km/h 1mph /  1.6km/h 90% 0.00in /  0mm 0 W/m2
01:09 46.9 °F /  8.3 °C 44.2 °F /  6.8 °C 30.22in /  1023.2hPa Calm   1mph /  1.6km/h 90.1% 0.00in /  0mm 0 W/m2
01:14 46.9 °F /  8.3 °C 44.4 °F /  6.9 °C 30.22in /  1023.2hPa NNW 0.1mph /  0.2km/h 1mph /  1.6km/h 90.9% 0.00in /  0mm 0 W/m2
01:19 46.9 °F /  8.3 °C 44.4 °F /  6.9 °C 30.22in /  1023.2hPa Calm   1mph /  1.6km/h 91% 0.00in /  0mm 0 W/m2
01:24 46.9 °F /  8.3 °C 44.4 °F /  6.9 °C 30.22in /  1023.2hPa Calm     91% 0.00in /  0mm 0 W/m2
01:29 47 °F /  8.3 °C 44.5 °F /  6.9 °C 30.22in /  1023.2hPa Calm     91% 0.00in /  0mm 0 W/m2
01:34 47.1 °F /  8.4 °C 44.6 °F /  7 °C 30.22in /  1023.2hPa Calm     91% 0.00in /  0mm 0 W/m2
01:39 47.1 °F /  8.4 °C 44.6 °F /  7 °C 30.22in /  1023.2hPa Calm     91% 0.00in /  0mm 0 W/m2
01:44 46.9 °F /  8.3 °C 44.4 °F /  6.9 °C 30.22in /  1023.2hPa Calm     91% 0.00in /  0mm 0 W/m2
01:49 46.9 °F /  8.3 °C 44.4 °F /  6.9 °C 30.22in /  1023.2hPa Calm     91% 0.00in /  0mm 0 W/m2
01:54 46.8 °F /  8.2 °C 44.2 °F /  6.8 °C 30.21in /  1022.9hPa Calm     91% 0.00in /  0mm 0 W/m2
01:59 46.6 °F /  8.1 °C 44.1 °F /  6.7 °C 30.21in /  1022.9hPa Calm     91% 0.00in /  0mm 0 W/m2
02:04 46.6 °F /  8.1 °C 44.1 °F /  6.7 °C 30.21in /  1022.9hPa Calm     91% 0.00in /  0mm 0 W/m2
02:09 46.3 °F /  7.9 °C 43.8 °F /  6.6 °C 30.21in /  1022.9hPa Calm     91% 0.00in /  0mm 0 W/m2
02:14 46.2 °F /  7.9 °C 43.7 °F /  6.5 °C 30.21in /  1022.9hPa Calm     91% 0.00in /  0mm 0 W/m2
02:19 46.2 °F /  7.9 °C 43.7 °F /  6.5 °C 30.21in /  1022.9hPa Calm     91% 0.00in /  0mm 0 W/m2
02:24 46.2 °F /  7.9 °C 43.7 °F /  6.5 °C 30.21in /  1022.9hPa Calm     91% 0.00in /  0mm 0 W/m2
02:29 46.2 °F /  7.9 °C 43.7 °F /  6.5 °C 30.21in /  1022.9hPa Calm     91% 0.00in /  0mm 0 W/m2
02:34 46 °F /  7.8 °C 43.5 °F /  6.4 °C 30.21in /  1022.9hPa Calm     91% 0.00in /  0mm 0 W/m2
02:39 45.9 °F /  7.7 °C 43.4 °F /  6.3 °C 30.21in /  1022.9hPa Calm     91% 0.00in /  0mm 0 W/m2
02:44 45.9 °F /  7.7 °C 43.3 °F /  6.3 °C 30.21in /  1022.9hPa Calm     91% 0.00in /  0mm 0 W/m2
02:49 45.9 °F /  7.7 °C 43.4 °F /  6.3 °C 30.21in /  1022.9hPa Calm     91.2% 0.00in /  0mm 0 W/m2
02:54 45.9 °F /  7.7 °C 43.7 °F /  6.5 °C 30.21in /  1022.9hPa Calm     92% 0.00in /  0mm 0 W/m2
02:59 45.8 °F /  7.7 °C 43.6 °F /  6.4 °C 30.21in /  1022.9hPa Calm     92% 0.00in /  0mm 0 W/m2
03:04 45.8 °F /  7.7 °C 43.6 °F /  6.4 °C 30.21in /  1022.9hPa Calm     92% 0.00in /  0mm 0 W/m2
03:09 45.9 °F /  7.7 °C 43.7 °F /  6.5 °C 30.21in /  1022.9hPa Calm     92% 0.00in /  0mm 0 W/m2
03:14 45.9 °F /  7.7 °C 43.7 °F /  6.5 °C 30.21in /  1022.9hPa Calm     92% 0.00in /  0mm 0 W/m2
03:19 46 °F /  7.8 °C 43.9 °F /  6.6 °C 30.21in /  1022.9hPa Calm     92% 0.00in /  0mm 0 W/m2
03:24 46 °F /  7.8 °C 43.9 °F /  6.6 °C 30.21in /  1022.9hPa Calm     92% 0.00in /  0mm 0 W/m2
03:29 46 °F /  7.8 °C 43.9 °F /  6.6 °C 30.21in /  1022.9hPa Calm     92% 0.00in /  0mm 0 W/m2
03:34 46.1 °F /  7.8 °C 44 °F /  6.7 °C 30.21in /  1022.9hPa Calm     92% 0.00in /  0mm 0 W/m2
03:39 46.2 °F /  7.9 °C 44.1 °F /  6.7 °C 30.21in /  1022.9hPa Calm     92% 0.00in /  0mm 0 W/m2
03:44 46.2 °F /  7.9 °C 44.1 °F /  6.7 °C 30.21in /  1022.9hPa Calm     92% 0.00in /  0mm 0 W/m2
03:49 46.2 °F /  7.9 °C 44.1 °F /  6.7 °C 30.20in /  1022.6hPa Calm     92% 0.00in /  0mm 0 W/m2
03:54 46.3 °F /  7.9 °C 44.2 °F /  6.8 °C 30.20in /  1022.6hPa Calm     92% 0.00in /  0mm 0 W/m2
03:59 46.4 °F /  8 °C 44.2 °F /  6.8 °C 30.20in /  1022.6hPa Calm     92% 0.00in /  0mm 0 W/m2
04:04 46.4 °F /  8 °C 44.2 °F /  6.8 °C 30.20in /  1022.6hPa Calm     92% 0.00in /  0mm 0 W/m2
04:09 46.4 °F /  8 °C 44.2 °F /  6.8 °C 30.20in /  1022.6hPa Calm     92% 0.00in /  0mm 0 W/m2
04:14 46.4 °F /  8 °C 44.2 °F /  6.8 °C 30.20in /  1022.6hPa Calm     92% 0.00in /  0mm 0 W/m2
04:19 46.4 °F /  8 °C 44.2 °F /  6.8 °C 30.20in /  1022.6hPa Calm     92% 0.00in /  0mm 0 W/m2
04:24 46.4 °F /  8 °C 44.2 °F /  6.8 °C 30.20in /  1022.6hPa Calm     92% 0.00in /  0mm 0 W/m2
04:29 46.4 °F /  8 °C 44.2 °F /  6.8 °C 30.20in /  1022.6hPa Calm     92% 0.00in /  0mm 0 W/m2
04:34 46.4 °F /  8 °C 44.2 °F /  6.8 °C 30.20in /  1022.6hPa Calm     92% 0.00in /  0mm 0 W/m2
04:39 46.4 °F /  8 °C 44.2 °F /  6.8 °C 30.20in /  1022.6hPa Calm     92% 0.00in /  0mm 0 W/m2
04:44 46.4 °F /  8 °C 44.2 °F /  6.8 °C 30.20in /  1022.6hPa Calm     92% 0.00in /  0mm 0 W/m2
04:49 46.4 °F /  8 °C 44.2 °F /  6.8 °C 30.20in /  1022.6hPa Calm     92% 0.00in /  0mm 0 W/m2
04:54 46.4 °F /  8 °C 44.2 °F /  6.8 °C 30.20in /  1022.6hPa Calm     92% 0.00in /  0mm 0 W/m2
04:59 46.4 °F /  8 °C 44.2 °F /  6.8 °C 30.21in /  1022.9hPa NNW 0.2mph /  0.3km/h 2mph /  3.2km/h 92.3% 0.00in /  0mm 0 W/m2
05:04 46.2 °F /  7.9 °C 44.2 °F /  6.8 °C 30.21in /  1022.9hPa NNW 1.3mph /  2.1km/h 3mph /  4.8km/h 93% 0.00in /  0mm 0 W/m2
05:09 46.2 °F /  7.9 °C 44.2 °F /  6.8 °C 30.21in /  1022.9hPa NNW 0.3mph /  0.5km/h 3mph /  4.8km/h 93% 0.00in /  0mm 0 W/m2
05:14 46.2 °F /  7.9 °C 44.2 °F /  6.8 °C 30.21in /  1022.9hPa Calm     93% 0.00in /  0mm 0 W/m2
05:19 46.2 °F /  7.9 °C 44.2 °F /  6.8 °C 30.21in /  1022.9hPa NNW 0.1mph /  0.2km/h 1mph /  1.6km/h 93% 0.00in /  0mm 0 W/m2
05:24 46.2 °F /  7.9 °C 44.2 °F /  6.8 °C 30.21in /  1022.9hPa Calm   1mph /  1.6km/h 93% 0.00in /  0mm 0 W/m2
05:29 46.2 °F /  7.9 °C 44.2 °F /  6.8 °C 30.21in /  1022.9hPa Calm   1mph /  1.6km/h 93% 0.00in /  0mm 0 W/m2
05:34 46.2 °F /  7.9 °C 44.2 °F /  6.8 °C 30.21in /  1022.9hPa Calm     93% 0.00in /  0mm 0 W/m2
05:39 46.2 °F /  7.9 °C 44.2 °F /  6.8 °C 30.21in /  1022.9hPa Calm     93% 0.00in /  0mm 0 W/m2
05:44 46.1 °F /  7.8 °C 44.2 °F /  6.8 °C 30.22in /  1023.2hPa Calm     93% 0.00in /  0mm 0 W/m2
05:49 46.1 °F /  7.8 °C 44.1 °F /  6.7 °C 30.22in /  1023.2hPa Calm     93% 0.00in /  0mm 0 W/m2
05:54 46 °F /  7.8 °C 44.1 °F /  6.7 °C 30.22in /  1023.2hPa NNW 0.1mph /  0.2km/h 1mph /  1.6km/h 93% 0.00in /  0mm 0 W/m2
05:59 46 °F /  7.8 °C 44.1 °F /  6.7 °C 30.22in /  1023.2hPa Calm     93% 0.00in /  0mm 0 W/m2
06:04 46 °F /  7.8 °C 44.1 °F /  6.7 °C 30.21in /  1022.9hPa Calm     93% 0.00in /  0mm 0 W/m2
06:09 46 °F /  7.8 °C 44.1 °F /  6.7 °C 30.22in /  1023.2hPa Calm     93% 0.00in /  0mm 0 W/m2
06:14 46 °F /  7.8 °C 44.1 °F /  6.7 °C 30.22in /  1023.2hPa Calm     93% 0.00in /  0mm 0 W/m2
06:19 46 °F /  7.8 °C 44.1 °F /  6.7 °C 30.22in /  1023.2hPa Calm     93% 0.00in /  0mm 0 W/m2
06:24 46 °F /  7.8 °C 44.1 °F /  6.7 °C 30.22in /  1023.2hPa Calm     93% 0.00in /  0mm 0 W/m2
06:29 46.2 °F /  7.9 °C 44.2 °F /  6.8 °C 30.22in /  1023.2hPa Calm     93% 0.00in /  0mm 0 W/m2
06:34 46.2 °F /  7.9 °C 44.2 °F /  6.8 °C 30.22in /  1023.2hPa Calm     93% 0.00in /  0mm 0 W/m2
06:39 46.2 °F /  7.9 °C 44.2 °F /  6.8 °C 30.22in /  1023.2hPa Calm     93% 0.00in /  0mm 0 W/m2
06:44 46.2 °F /  7.9 °C 44.2 °F /  6.8 °C 30.22in /  1023.2hPa Calm     93% 0.00in /  0mm 0 W/m2
06:49 46.2 °F /  7.9 °C 44.2 °F /  6.8 °C 30.22in /  1023.2hPa Calm     93% 0.00in /  0mm 0 W/m2
06:54 46.2 °F /  7.9 °C 44.2 °F /  6.8 °C 30.22in /  1023.2hPa Calm     93% 0.00in /  0mm 0 W/m2
06:59 46.2 °F /  7.9 °C 44.2 °F /  6.8 °C 30.22in /  1023.2hPa Calm     93% 0.00in /  0mm 0 W/m2
07:04 46.2 °F /  7.9 °C 44.2 °F /  6.8 °C 30.22in /  1023.2hPa Calm     93% 0.00in /  0mm 0 W/m2
07:09 46.2 °F /  7.9 °C 44.2 °F /  6.8 °C 30.22in /  1023.2hPa NNW 0.2mph /  0.3km/h 1mph /  1.6km/h 93% 0.00in /  0mm 0 W/m2
07:14 46.2 °F /  7.9 °C 44.2 °F /  6.8 °C 30.22in /  1023.2hPa Calm   1mph /  1.6km/h 93% 0.00in /  0mm 0 W/m2
07:19 46.2 °F /  7.9 °C 44.2 °F /  6.8 °C 30.22in /  1023.2hPa Calm     93% 0.00in /  0mm 0 W/m2
07:24 46.2 °F /  7.9 °C 44.2 °F /  6.8 °C 30.22in /  1023.2hPa NNW 0.1mph /  0.2km/h 1mph /  1.6km/h 93% 0.00in /  0mm 0 W/m2
07:29 46.2 °F /  7.9 °C 44.2 °F /  6.8 °C 30.22in /  1023.2hPa Calm     93% 0.00in /  0mm 0 W/m2
07:34 46.2 °F /  7.9 °C 44.2 °F /  6.8 °C 30.22in /  1023.2hPa Calm     93% 0.00in /  0mm 0 W/m2
07:39 46.2 °F /  7.9 °C 44.2 °F /  6.8 °C 30.22in /  1023.2hPa Calm     93% 0.00in /  0mm 0 W/m2
07:44 46.2 °F /  7.9 °C 44.2 °F /  6.8 °C 30.22in /  1023.2hPa Calm     93% 0.00in /  0mm 0 W/m2
07:49 46.5 °F /  8.1 °C 44.8 °F /  7.1 °C 30.22in /  1023.2hPa Calm     93.8% 0.00in /  0mm 5 W/m2
07:54 46.6 °F /  8.1 °C 45 °F /  7.2 °C 30.22in /  1023.2hPa NNW 0.2mph /  0.3km/h 1mph /  1.6km/h 94% 0.00in /  0mm 7 W/m2
07:59 46.6 °F /  8.1 °C 45 °F /  7.2 °C 30.22in /  1023.2hPa Calm   1mph /  1.6km/h 94% 0.00in /  0mm 9 W/m2
08:04 46.6 °F /  8.1 °C 45 °F /  7.2 °C 30.22in /  1023.2hPa Calm     94% 0.00in /  0mm 11 W/m2
08:09 46.7 °F /  8.2 °C 45 °F /  7.2 °C 30.22in /  1023.2hPa Calm     94% 0.00in /  0mm 16 W/m2
08:14 46.4 °F /  8 °C 44.5 °F /  6.9 °C 30.23in /  1023.6hPa Calm     93.3% 0.00in /  0mm 16 W/m2
08:19 46.5 °F /  8.1 °C 44.8 °F /  7.1 °C 30.23in /  1023.6hPa Calm     93.8% 0.00in /  0mm 18 W/m2
08:24 46.7 °F /  8.2 °C 45.1 °F /  7.3 °C 30.23in /  1023.6hPa Calm     94% 0.00in /  0mm 21 W/m2
08:29 46.7 °F /  8.2 °C 45 °F /  7.2 °C 30.23in /  1023.6hPa Calm     94% 0.00in /  0mm 21 W/m2
08:34 46.7 °F /  8.2 °C 45 °F /  7.2 °C 30.23in /  1023.6hPa Calm     94% 0.00in /  0mm 21 W/m2
08:39 46.9 °F /  8.3 °C 45.2 °F /  7.3 °C 30.23in /  1023.6hPa Calm     94% 0.00in /  0mm 23 W/m2
08:44 47.2 °F /  8.4 °C 45.6 °F /  7.6 °C 30.23in /  1023.6hPa Calm     94% 0.00in /  0mm 26 W/m2
08:49 47.3 °F /  8.5 °C 45.7 °F /  7.6 °C 30.24in /  1023.9hPa Calm     94% 0.00in /  0mm 26 W/m2
08:54 47.4 °F /  8.6 °C 45.8 °F /  7.7 °C 30.24in /  1023.9hPa Calm     94% 0.00in /  0mm 28 W/m2
08:59 47.5 °F /  8.6 °C 45.9 °F /  7.7 °C 30.24in /  1023.9hPa Calm   1mph /  1.6km/h 94% 0.00in /  0mm 30 W/m2
09:04 47.7 °F /  8.7 °C 46 °F /  7.8 °C 30.24in /  1023.9hPa Calm     94% 0.00in /  0mm 30 W/m2
09:09 47.8 °F /  8.8 °C 46.2 °F /  7.9 °C 30.24in /  1023.9hPa Calm     94% 0.00in /  0mm 33 W/m2
09:14 47.8 °F /  8.8 °C 46.2 °F /  7.9 °C 30.24in /  1023.9hPa Calm     94% 0.00in /  0mm 40 W/m2
09:19 47.7 °F /  8.7 °C 46 °F /  7.8 °C 30.24in /  1023.9hPa Calm     94% 0.00in /  0mm 44 W/m2
09:24 47.7 °F /  8.7 °C 46.1 °F /  7.8 °C 30.24in /  1023.9hPa Calm     94% 0.00in /  0mm 53 W/m2
09:29 47.8 °F /  8.8 °C 46.2 °F /  7.9 °C 30.24in /  1023.9hPa Calm     93.8% 0.00in /  0mm 62 W/m2
09:34 48 °F /  8.9 °C 46.4 °F /  8 °C 30.25in /  1024.3hPa Calm     94% 0.00in /  0mm 65 W/m2
09:39 48.3 °F /  9.1 °C 46.7 °F /  8.2 °C 30.25in /  1024.3hPa Calm     94% 0.00in /  0mm 77 W/m2
09:44 48.6 °F /  9.2 °C 46.9 °F /  8.3 °C 30.25in /  1024.3hPa Calm     94% 0.00in /  0mm 83 W/m2
09:49 49 °F /  9.4 °C 47.4 °F /  8.6 °C 30.25in /  1024.3hPa Calm     94% 0.00in /  0mm 100 W/m2
09:54 49.3 °F /  9.6 °C 47.7 °F /  8.7 °C 30.24in /  1023.9hPa Calm     94% 0.00in /  0mm 118 W/m2
09:59 49.5 °F /  9.7 °C 47.8 °F /  8.8 °C 30.24in /  1023.9hPa Calm     94% 0.00in /  0mm 144 W/m2
10:04 49.6 °F /  9.8 °C 47.6 °F /  8.7 °C 30.24in /  1023.9hPa Calm     93.2% 0.00in /  0mm 257 W/m2
10:09 50.4 °F /  10.2 °C 48.4 °F /  9.1 °C 30.24in /  1023.9hPa Calm     92.8% 0.00in /  0mm 214 W/m2
10:14 51.5 °F /  10.8 °C 49.1 °F /  9.5 °C 30.24in /  1023.9hPa Calm     91.5% 0.00in /  0mm 200 W/m2
10:19 51.6 °F /  10.9 °C 48.3 °F /  9.1 °C 30.24in /  1023.9hPa NNW 0.1mph /  0.2km/h 1mph /  1.6km/h 88.3% 0.00in /  0mm 211 W/m2
10:24 52 °F /  11.1 °C 47.8 °F /  8.8 °C 30.24in /  1023.9hPa NNW 0.4mph /  0.6km/h 2mph /  3.2km/h 85.9% 0.00in /  0mm 223 W/m2
10:29 52.4 °F /  11.3 °C 47.9 °F /  8.8 °C 30.24in /  1023.9hPa Calm     84.7% 0.00in /  0mm 236 W/m2
10:34 52.9 °F /  11.6 °C 47.8 °F /  8.8 °C 30.24in /  1023.9hPa NNW 0.1mph /  0.2km/h 1mph /  1.6km/h 82.8% 0.00in /  0mm 248 W/m2
10:39 52.9 °F /  11.6 °C 47.6 °F /  8.7 °C 30.24in /  1023.9hPa NNW 0.1mph /  0.2km/h 1mph /  1.6km/h 82.2% 0.00in /  0mm 262 W/m2
10:44 54.4 °F /  12.4 °C 48.8 °F /  9.3 °C 30.24in /  1023.9hPa NW 0.9mph /  1.4km/h 5mph /  8km/h 81.5% 0.00in /  0mm 272 W/m2
10:49 53.9 °F /  12.2 °C 47.7 °F /  8.7 °C 30.23in /  1023.6hPa WNW 0.9mph /  1.4km/h 5mph /  8km/h 79.1% 0.00in /  0mm 272 W/m2
10:54 53.7 °F /  12.1 °C 47.4 °F /  8.6 °C 30.24in /  1023.9hPa WNW 0.5mph /  0.8km/h 3mph /  4.8km/h 79.3% 0.00in /  0mm 285 W/m2
10:59 54.7 °F /  12.6 °C 48.3 °F /  9.1 °C 30.24in /  1023.9hPa WNW 0.7mph /  1.1km/h 4mph /  6.4km/h 79% 0.00in /  0mm 290 W/m2
11:04 54.9 °F /  12.7 °C 47.9 °F /  8.8 °C 30.24in /  1023.9hPa WNW 0.4mph /  0.6km/h 4mph /  6.4km/h 77.4% 0.00in /  0mm 313 W/m2
11:09 54.8 °F /  12.7 °C 47.7 °F /  8.7 °C 30.24in /  1023.9hPa Calm   2mph /  3.2km/h 77% 0.00in /  0mm 320 W/m2
11:14 54.9 °F /  12.7 °C 47.7 °F /  8.7 °C 30.23in /  1023.6hPa WNW 0.6mph /  1km/h 3mph /  4.8km/h 76.3% 0.00in /  0mm 332 W/m2
11:19 55.7 °F /  13.2 °C 48.4 °F /  9.1 °C 30.23in /  1023.6hPa WNW 0.2mph /  0.3km/h 2mph /  3.2km/h 76.1% 0.00in /  0mm 343 W/m2
11:24 56.8 °F /  13.8 °C 48.8 °F /  9.3 °C 30.23in /  1023.6hPa Calm   2mph /  3.2km/h 74.7% 0.00in /  0mm 350 W/m2
11:29 56.6 °F /  13.7 °C 47.7 °F /  8.7 °C 30.23in /  1023.6hPa West 1.6mph /  2.6km/h 7mph /  11.3km/h 72.2% 0.00in /  0mm 355 W/m2
11:34 56.1 °F /  13.4 °C 47.4 °F /  8.6 °C 30.23in /  1023.6hPa West 0.4mph /  0.6km/h 5mph /  8km/h 72.2% 0.00in /  0mm 367 W/m2
11:39 56.7 °F /  13.7 °C 47.3 °F /  8.5 °C 30.23in /  1023.6hPa West 1.8mph /  2.9km/h 5mph /  8km/h 70.8% 0.00in /  0mm 373 W/m2
11:44 56.8 °F /  13.8 °C 46.6 °F /  8.1 °C 30.23in /  1023.6hPa WSW 5mph /  8km/h 8mph /  12.9km/h 68.8% 0.00in /  0mm 380 W/m2
11:49 56.2 °F /  13.4 °C 46.1 °F /  7.8 °C 30.23in /  1023.6hPa SW 2.9mph /  4.7km/h 8mph /  12.9km/h 68.8% 0.00in /  0mm 388 W/m2
11:54 56.6 °F /  13.7 °C 46.6 °F /  8.1 °C 30.23in /  1023.6hPa SW 1.9mph /  3.1km/h 6mph /  9.7km/h 69.1% 0.00in /  0mm 390 W/m2
11:59 57.1 °F /  13.9 °C 46.5 °F /  8.1 °C 30.23in /  1023.6hPa SW 3.2mph /  5.1km/h 7mph /  11.3km/h 67.6% 0.00in /  0mm 401 W/m2
12:04 58 °F /  14.4 °C 46.7 °F /  8.2 °C 30.23in /  1023.6hPa SW 2.5mph /  4km/h 6mph /  9.7km/h 66% 0.00in /  0mm 410 W/m2
12:09 57.9 °F /  14.4 °C 46 °F /  7.8 °C 30.24in /  1023.9hPa WSW 6.1mph /  9.8km/h 10mph /  16.1km/h 64.4% 0.00in /  0mm 417 W/m2
12:14 57.9 °F /  14.4 °C 46.9 °F /  8.3 °C 30.24in /  1023.9hPa SW 4.2mph /  6.8km/h 10mph /  16.1km/h 67% 0.00in /  0mm 424 W/m2
12:19 58.1 °F /  14.5 °C 47 °F /  8.3 °C 30.23in /  1023.6hPa SW 5.3mph /  8.5km/h 11mph /  17.7km/h 66.7% 0.00in /  0mm 424 W/m2
12:24 58 °F /  14.4 °C 46.8 °F /  8.2 °C 30.23in /  1023.6hPa WSW 4.8mph /  7.7km/h 11mph /  17.7km/h 66.3% 0.00in /  0mm 424 W/m2
12:29 57.9 °F /  14.4 °C 47 °F /  8.3 °C 30.23in /  1023.6hPa WSW 4.7mph /  7.6km/h 9mph /  14.5km/h 67.1% 0.00in /  0mm 427 W/m2
12:34 58.2 °F /  14.6 °C 47.3 °F /  8.5 °C 30.23in /  1023.6hPa WSW 4.6mph /  7.4km/h 9mph /  14.5km/h 67.1% 0.00in /  0mm 432 W/m2
12:39 58.5 °F /  14.7 °C 47.6 °F /  8.7 °C 30.23in /  1023.6hPa SW 5mph /  8km/h 9mph /  14.5km/h 67.2% 0.00in /  0mm 436 W/m2
12:44 58.5 °F /  14.7 °C 47.4 °F /  8.6 °C 30.23in /  1023.6hPa WSW 6mph /  9.7km/h 11mph /  17.7km/h 66.5% 0.00in /  0mm 436 W/m2
12:49 58.4 °F /  14.7 °C 47.5 °F /  8.6 °C 30.23in /  1023.6hPa WSW 5.2mph /  8.4km/h 11mph /  17.7km/h 67.2% 0.00in /  0mm 446 W/m2
12:54 59.2 °F /  15.1 °C 48.6 °F /  9.2 °C 30.23in /  1023.6hPa SSW 2.9mph /  4.7km/h 8mph /  12.9km/h 68% 0.00in /  0mm 450 W/m2
12:59 59.4 °F /  15.2 °C 48.4 °F /  9.1 °C 30.23in /  1023.6hPa SSW 5.9mph /  9.5km/h 10mph /  16.1km/h 66.8% 0.00in /  0mm 475 W/m2
13:04 58.3 °F /  14.6 °C 47.4 °F /  8.6 °C 30.23in /  1023.6hPa SW 4.7mph /  7.6km/h 10mph /  16.1km/h 67.1% 0.00in /  0mm 225 W/m2
13:09 57.9 °F /  14.4 °C 47.5 °F /  8.6 °C 30.23in /  1023.6hPa SSW 3.9mph /  6.3km/h 9mph /  14.5km/h 68.1% 0.00in /  0mm 269 W/m2
13:14 57.8 °F /  14.3 °C 47.6 °F /  8.7 °C 30.23in /  1023.6hPa SSW 2.8mph /  4.5km/h 7mph /  11.3km/h 68.6% 0.00in /  0mm 272 W/m2
13:19 58.1 °F /  14.5 °C 47.9 °F /  8.8 °C 30.22in /  1023.2hPa SW 2.3mph /  3.7km/h 6mph /  9.7km/h 68.8% 0.00in /  0mm 555 W/m2
13:24 58.4 °F /  14.7 °C 47.8 °F /  8.8 °C 30.22in /  1023.2hPa SW 5.1mph /  8.2km/h 10mph /  16.1km/h 67.8% 0.00in /  0mm 555 W/m2
13:29 58.6 °F /  14.8 °C 48.1 °F /  8.9 °C 30.22in /  1023.2hPa WSW 3.8mph /  6.1km/h 8mph /  12.9km/h 67.8% 0.00in /  0mm 555 W/m2
13:34 58.5 °F /  14.7 °C 48 °F /  8.9 °C 30.22in /  1023.2hPa West 3.9mph /  6.3km/h 7mph /  11.3km/h 67.9% 0.00in /  0mm 452 W/m2
13:39 58.7 °F /  14.8 °C 47.8 °F /  8.8 °C 30.21in /  1022.9hPa WSW 4.5mph /  7.2km/h 8mph /  12.9km/h 67% 0.00in /  0mm 432 W/m2
13:44 58.6 °F /  14.8 °C 47.3 °F /  8.5 °C 30.21in /  1022.9hPa WSW 4.6mph /  7.4km/h 8mph /  12.9km/h 66.1% 0.00in /  0mm 432 W/m2
13:49 58.8 °F /  14.9 °C 47.5 °F /  8.6 °C 30.21in /  1022.9hPa SW 3.8mph /  6.1km/h 8mph /  12.9km/h 66% 0.00in /  0mm 452 W/m2
13:54 58.6 °F /  14.8 °C 47.2 °F /  8.4 °C 30.21in /  1022.9hPa SW 2.9mph /  4.7km/h 8mph /  12.9km/h 65.7% 0.00in /  0mm 452 W/m2
13:59 58.5 °F /  14.7 °C 47.1 °F /  8.4 °C 30.21in /  1022.9hPa SW 3.8mph /  6.1km/h 7mph /  11.3km/h 66% 0.00in /  0mm 446 W/m2
14:04 58.4 °F /  14.7 °C 47.2 °F /  8.4 °C 30.21in /  1022.9hPa SW 3.7mph /  6km/h 8mph /  12.9km/h 66.3% 0.00in /  0mm 438 W/m2
14:09 59 °F /  15 °C 46.9 °F /  8.3 °C 30.20in /  1022.6hPa SW 3.6mph /  5.8km/h 7mph /  11.3km/h 64.3% 0.00in /  0mm 411 W/m2
14:14 59.4 °F /  15.2 °C 47.5 °F /  8.6 °C 30.20in /  1022.6hPa SW 2.9mph /  4.7km/h 7mph /  11.3km/h 64.5% 0.00in /  0mm 410 W/m2
14:19 59.5 °F /  15.3 °C 47.2 °F /  8.4 °C 30.20in /  1022.6hPa WSW 3.9mph /  6.3km/h 7mph /  11.3km/h 63.8% 0.00in /  0mm 406 W/m2
14:24 59.7 °F /  15.4 °C 47.3 °F /  8.5 °C 30.20in /  1022.6hPa WSW 2.7mph /  4.3km/h 6mph /  9.7km/h 63.6% 0.00in /  0mm 403 W/m2
14:29 59.8 °F /  15.4 °C 47.2 °F /  8.4 °C 30.20in /  1022.6hPa SW 4.3mph /  6.9km/h 7mph /  11.3km/h 62.8% 0.00in /  0mm 396 W/m2
14:34 59.5 °F /  15.3 °C 46.5 °F /  8.1 °C 30.20in /  1022.6hPa WSW 5.2mph /  8.4km/h 9mph /  14.5km/h 62% 0.00in /  0mm 392 W/m2
14:39 59.8 °F /  15.4 °C 46.9 °F /  8.3 °C 30.20in /  1022.6hPa SW 2.5mph /  4km/h 6mph /  9.7km/h 62.5% 0.00in /  0mm 403 W/m2
14:44 59.9 °F /  15.5 °C 46.9 °F /  8.3 °C 30.20in /  1022.6hPa WSW 3.6mph /  5.8km/h 8mph /  12.9km/h 62.1% 0.00in /  0mm 232 W/m2
14:49 59.1 °F /  15.1 °C 46.3 °F /  7.9 °C 30.20in /  1022.6hPa West 5.3mph /  8.5km/h 9mph /  14.5km/h 62.5% 0.00in /  0mm 153 W/m2
14:54 58.4 °F /  14.7 °C 46.2 °F /  7.9 °C 30.19in /  1022.2hPa WSW 4.8mph /  7.7km/h 9mph /  14.5km/h 63.9% 0.00in /  0mm 151 W/m2
14:59 58.1 °F /  14.5 °C 46.7 °F /  8.2 °C 30.19in /  1022.2hPa WSW 5mph /  8km/h 9mph /  14.5km/h 65.9% 0.00in /  0mm 153 W/m2
15:09 58 °F /  14.4 °C 47.5 °F /  8.6 °C 30.19in /  1022.2hPa WSW 3.3mph /  5.3km/h 7mph /  11.3km/h 67.8% 0.00in /  0mm 162 W/m2
15:14 57.9 °F /  14.4 °C 47.7 °F /  8.7 °C 30.19in /  1022.2hPa WSW 4.5mph /  7.2km/h 8mph /  12.9km/h 68.8% 0.00in /  0mm 156 W/m2
15:19 57.6 °F /  14.2 °C 47.6 °F /  8.7 °C 30.19in /  1022.2hPa WSW 3.5mph /  5.6km/h 8mph /  12.9km/h 69.3% 0.00in /  0mm 155 W/m2
15:24 57.6 °F /  14.2 °C 47.8 °F /  8.8 °C 30.19in /  1022.2hPa West 2.1mph /  3.4km/h 7mph /  11.3km/h 70% 0.00in /  0mm 134 W/m2
15:29 57.6 °F /  14.2 °C 47.8 °F /  8.8 °C 30.19in /  1022.2hPa West 4mph /  6.4km/h 8mph /  12.9km/h 70% 0.00in /  0mm 123 W/m2
15:34 57.4 °F /  14.1 °C 47.5 °F /  8.6 °C 30.19in /  1022.2hPa WSW 4.1mph /  6.6km/h 8mph /  12.9km/h 69.6% 0.00in /  0mm 123 W/m2
15:39 57.3 °F /  14.1 °C 47 °F /  8.3 °C 30.19in /  1022.2hPa SW 4mph /  6.4km/h 8mph /  12.9km/h 68.3% 0.00in /  0mm 105 W/m2
15:44 57 °F /  13.9 °C 46.7 °F /  8.2 °C 30.19in /  1022.2hPa SW 4.1mph /  6.6km/h 8mph /  12.9km/h 68.3% 0.00in /  0mm 93 W/m2
15:49 57 °F /  13.9 °C 46.7 °F /  8.2 °C 30.19in /  1022.2hPa WSW 3.3mph /  5.3km/h 8mph /  12.9km/h 68.2% 0.00in /  0mm 97 W/m2
15:54 57 °F /  13.9 °C 46.6 °F /  8.1 °C 30.18in /  1021.9hPa WSW 2.9mph /  4.7km/h 7mph /  11.3km/h 68.1% 0.00in /  0mm 97 W/m2
15:59 57 °F /  13.9 °C 46.6 °F /  8.1 °C 30.18in /  1021.9hPa WSW 3.2mph /  5.1km/h 6mph /  9.7km/h 68.1% 0.00in /  0mm 84 W/m2
16:04 56.8 °F /  13.8 °C 46.7 °F /  8.2 °C 30.18in /  1021.9hPa WSW 2.5mph /  4km/h 6mph /  9.7km/h 68.7% 0.00in /  0mm 83 W/m2
16:09 56.8 °F /  13.8 °C 46.8 °F /  8.2 °C 30.18in /  1021.9hPa WSW 2.6mph /  4.2km/h 5mph /  8km/h 68.9% 0.00in /  0mm 72 W/m2
16:14 56.8 °F /  13.8 °C 46.8 °F /  8.2 °C 30.18in /  1021.9hPa WSW 2.3mph /  3.7km/h 4mph /  6.4km/h 69% 0.00in /  0mm 63 W/m2
16:19 56.8 °F /  13.8 °C 47 °F /  8.3 °C 30.18in /  1021.9hPa WSW 1.7mph /  2.7km/h 5mph /  8km/h 69.8% 0.00in /  0mm 51 W/m2
16:24 56.8 °F /  13.8 °C 47.1 °F /  8.4 °C 30.18in /  1021.9hPa WSW 0.8mph /  1.3km/h 3mph /  4.8km/h 70% 0.00in /  0mm 47 W/m2
16:29 56.7 °F /  13.7 °C 47.4 °F /  8.6 °C 30.18in /  1021.9hPa WSW 0.6mph /  1km/h 3mph /  4.8km/h 71% 0.00in /  0mm 47 W/m2
16:34 56.8 °F /  13.8 °C 47.5 °F /  8.6 °C 30.18in /  1021.9hPa WSW 0.3mph /  0.5km/h 3mph /  4.8km/h 71% 0.00in /  0mm 46 W/m2
16:39 56.8 °F /  13.8 °C 47.8 °F /  8.8 °C 30.18in /  1021.9hPa WSW 0.4mph /  0.6km/h 3mph /  4.8km/h 72% 0.00in /  0mm 42 W/m2
16:44 56.8 °F /  13.8 °C 47.8 °F /  8.8 °C 30.18in /  1021.9hPa Calm     72% 0.00in /  0mm 51 W/m2
16:49 56.9 °F /  13.8 °C 48.1 °F /  8.9 °C 30.18in /  1021.9hPa WSW 0.3mph /  0.5km/h 3mph /  4.8km/h 72.4% 0.00in /  0mm 88 W/m2
16:54 56.8 °F /  13.8 °C 47.8 °F /  8.8 °C 30.17in /  1021.6hPa WSW 1.5mph /  2.4km/h 5mph /  8km/h 72% 0.00in /  0mm 69 W/m2
16:59 56.7 °F /  13.7 °C 47.8 °F /  8.8 °C 30.17in /  1021.6hPa WSW 0.1mph /  0.2km/h 2mph /  3.2km/h 72.3% 0.00in /  0mm 72 W/m2
17:04 56.8 °F /  13.8 °C 48.1 °F /  8.9 °C 30.17in /  1021.6hPa WSW 0.3mph /  0.5km/h 2mph /  3.2km/h 73% 0.00in /  0mm 69 W/m2
17:09 56.9 °F /  13.8 °C 48.3 °F /  9.1 °C 30.17in /  1021.6hPa Calm   2mph /  3.2km/h 73% 0.00in /  0mm 86 W/m2
17:14 57.3 °F /  14.1 °C 48.6 °F /  9.2 °C 30.17in /  1021.6hPa WSW 0.2mph /  0.3km/h 2mph /  3.2km/h 73% 0.00in /  0mm 74 W/m2
17:19 57.4 °F /  14.1 °C 48.7 °F /  9.3 °C 30.17in /  1021.6hPa WSW 0.8mph /  1.3km/h 2mph /  3.2km/h 73% 0.00in /  0mm 65 W/m2
17:24 57 °F /  13.9 °C 48.4 °F /  9.1 °C 30.17in /  1021.6hPa WSW 0.7mph /  1.1km/h 3mph /  4.8km/h 73% 0.00in /  0mm 63 W/m2
17:29 56.9 °F /  13.8 °C 48.2 °F /  9 °C 30.17in /  1021.6hPa WSW 0.6mph /  1km/h 3mph /  4.8km/h 72.7% 0.00in /  0mm 49 W/m2
17:34 56.8 °F /  13.8 °C 48 °F /  8.9 °C 30.17in /  1021.6hPa WSW 0.2mph /  0.3km/h 2mph /  3.2km/h 72.4% 0.00in /  0mm 37 W/m2
17:39 57 °F /  13.9 °C 48.4 °F /  9.1 °C 30.17in /  1021.6hPa Calm   1mph /  1.6km/h 73% 0.00in /  0mm 30 W/m2
17:44 56.8 °F /  13.8 °C 48.2 °F /  9 °C 30.17in /  1021.6hPa Calm   1mph /  1.6km/h 73% 0.00in /  0mm 25 W/m2
17:49 56.7 °F /  13.7 °C 48 °F /  8.9 °C 30.17in /  1021.6hPa WSW 0.5mph /  0.8km/h 2mph /  3.2km/h 73% 0.00in /  0mm 19 W/m2
17:54 56.5 °F /  13.6 °C 48 °F /  8.9 °C 30.17in /  1021.6hPa WSW 0.7mph /  1.1km/h 3mph /  4.8km/h 73% 0.00in /  0mm 18 W/m2
17:59 56.4 °F /  13.6 °C 48.2 °F /  9 °C 30.17in /  1021.6hPa Calm   1mph /  1.6km/h 73.6% 0.00in /  0mm 7 W/m2
18:04 56.6 °F /  13.7 °C 48.4 °F /  9.1 °C 30.17in /  1021.6hPa Calm     74% 0.00in /  0mm 5 W/m2
18:09 56.6 °F /  13.7 °C 48.6 °F /  9.2 °C 30.17in /  1021.6hPa Calm     74.6% 0.00in /  0mm 0 W/m2
18:14 56.3 °F /  13.5 °C 48.6 °F /  9.2 °C 30.17in /  1021.6hPa WSW 0.2mph /  0.3km/h 1mph /  1.6km/h 75% 0.00in /  0mm 0 W/m2
18:19 55.9 °F /  13.3 °C 48.2 °F /  9 °C 30.17in /  1021.6hPa Calm     75% 0.00in /  0mm 0 W/m2
18:24 55.7 °F /  13.2 °C 47.9 °F /  8.8 °C 30.17in /  1021.6hPa Calm     75% 0.00in /  0mm 0 W/m2
18:29 55.5 °F /  13.1 °C 48.1 °F /  8.9 °C 30.16in /  1021.2hPa Calm     75.9% 0.00in /  0mm 0 W/m2
18:34 55.3 °F /  12.9 °C 47.9 °F /  8.8 °C 30.17in /  1021.6hPa Calm     76% 0.00in /  0mm 0 W/m2
18:39 55.1 °F /  12.8 °C 47.8 °F /  8.8 °C 30.17in /  1021.6hPa Calm     76% 0.00in /  0mm 0 W/m2
18:44 55 °F /  12.8 °C 47.7 °F /  8.7 °C 30.17in /  1021.6hPa Calm     76% 0.00in /  0mm 0 W/m2
18:49 54.9 °F /  12.7 °C 47.8 °F /  8.8 °C 30.17in /  1021.6hPa Calm     77% 0.00in /  0mm 0 W/m2
18:54 54.7 °F /  12.6 °C 47.7 °F /  8.7 °C 30.17in /  1021.6hPa Calm     77% 0.00in /  0mm 0 W/m2
18:59 54.5 °F /  12.5 °C 47.5 °F /  8.6 °C 30.17in /  1021.6hPa Calm     77% 0.00in /  0mm 0 W/m2
19:04 54.3 °F /  12.4 °C 47.3 °F /  8.5 °C 30.17in /  1021.6hPa Calm     77% 0.00in /  0mm 0 W/m2
19:09 54.2 °F /  12.3 °C 47.5 °F /  8.6 °C 30.17in /  1021.6hPa Calm     77.8% 0.00in /  0mm 0 W/m2
19:14 53.8 °F /  12.1 °C 47.3 °F /  8.5 °C 30.16in /  1021.2hPa Calm     78.3% 0.00in /  0mm 0 W/m2
19:19 53.3 °F /  11.8 °C 47 °F /  8.3 °C 30.16in /  1021.2hPa Calm     79% 0.00in /  0mm 0 W/m2
19:24 52.9 °F /  11.6 °C 46.9 °F /  8.3 °C 30.16in /  1021.2hPa Calm     79.9% 0.00in /  0mm 0 W/m2
19:29 52.6 °F /  11.4 °C 46.9 °F /  8.3 °C 30.16in /  1021.2hPa Calm     80.5% 0.00in /  0mm 0 W/m2
19:34 52.4 °F /  11.3 °C 46.9 °F /  8.3 °C 30.16in /  1021.2hPa Calm     81% 0.00in /  0mm 0 W/m2
19:39 52.3 °F /  11.3 °C 46.8 °F /  8.2 °C 30.16in /  1021.2hPa Calm     81.4% 0.00in /  0mm 0 W/m2
19:44 52 °F /  11.1 °C 46.6 °F /  8.1 °C 30.16in /  1021.2hPa Calm     82% 0.00in /  0mm 0 W/m2
19:49 51.6 °F /  10.9 °C 46.3 °F /  7.9 °C 30.16in /  1021.2hPa Calm     82.5% 0.00in /  0mm 0 W/m2
19:54 51.3 °F /  10.7 °C 46.2 °F /  7.9 °C 30.16in /  1021.2hPa Calm     83% 0.00in /  0mm 0 W/m2
19:59 51.1 °F /  10.6 °C 46.3 °F /  7.9 °C 30.16in /  1021.2hPa Calm     83.6% 0.00in /  0mm 0 W/m2
20:04 51 °F /  10.6 °C 46.3 °F /  7.9 °C 30.16in /  1021.2hPa Calm     84% 0.00in /  0mm 0 W/m2
20:09 50.7 °F /  10.4 °C 46 °F /  7.8 °C 30.16in /  1021.2hPa Calm     84% 0.00in /  0mm 0 W/m2
20:14 50.7 °F /  10.4 °C 46 °F /  7.8 °C 30.16in /  1021.2hPa Calm     84% 0.00in /  0mm 0 W/m2
20:19 50.6 °F /  10.3 °C 46.3 °F /  7.9 °C 30.16in /  1021.2hPa Calm     85% 0.00in /  0mm 0 W/m2
20:24 50.5 °F /  10.3 °C 46.2 °F /  7.9 °C 30.16in /  1021.2hPa Calm     85% 0.00in /  0mm 0 W/m2
20:29 50.4 °F /  10.2 °C 46.1 °F /  7.8 °C 30.15in /  1020.9hPa Calm     85% 0.00in /  0mm 0 W/m2
20:34 50.3 °F /  10.2 °C 46.1 °F /  7.8 °C 30.15in /  1020.9hPa Calm     85.5% 0.00in /  0mm 0 W/m2
20:39 49.9 °F /  9.9 °C 46 °F /  7.8 °C 30.15in /  1020.9hPa Calm     86% 0.00in /  0mm 0 W/m2
20:41 49.8 °F /  9.9 °C 45.9 °F /  7.7 °C 30.15in /  1020.9hPa Calm     86% 0.00in /  0mm 0 W/m2
20:54 49.5 °F /  9.7 °C 45.7 °F /  7.6 °C 30.15in /  1020.9hPa Calm     87% 0.00in /  0mm 0 W/m2
20:59 49.3 °F /  9.6 °C 45.5 °F /  7.5 °C 30.15in /  1020.9hPa Calm     87% 0.00in /  0mm 0 W/m2
21:04 49.3 °F /  9.6 °C 45.5 °F /  7.5 °C 30.15in /  1020.9hPa Calm     87% 0.00in /  0mm 0 W/m2
21:09 49.1 °F /  9.5 °C 45.3 °F /  7.4 °C 30.15in /  1020.9hPa Calm     87% 0.00in /  0mm 0 W/m2
21:14 49 °F /  9.4 °C 45.2 °F /  7.3 °C 30.15in /  1020.9hPa Calm     87% 0.00in /  0mm 0 W/m2
21:19 48.7 °F /  9.3 °C 44.9 °F /  7.2 °C 30.15in /  1020.9hPa Calm     87% 0.00in /  0mm 0 W/m2
21:24 48.4 °F /  9.1 °C 44.9 °F /  7.2 °C 30.15in /  1020.9hPa Calm     87.5% 0.00in /  0mm 0 W/m2
21:29 48.2 °F /  9 °C 44.7 °F /  7.1 °C 30.15in /  1020.9hPa Calm   1mph /  1.6km/h 87.6% 0.00in /  0mm 0 W/m2
21:34 48 °F /  8.9 °C 44.6 °F /  7 °C 30.15in /  1020.9hPa WSW 0.1mph /  0.2km/h 2mph /  3.2km/h 88% 0.00in /  0mm 0 W/m2
21:39 47.8 °F /  8.8 °C 44.4 °F /  6.9 °C 30.15in /  1020.9hPa WSW 0.1mph /  0.2km/h 1mph /  1.6km/h 88% 0.00in /  0mm 0 W/m2
21:44 47.7 °F /  8.7 °C 44.2 °F /  6.8 °C 30.15in /  1020.9hPa WSW 0.1mph /  0.2km/h 1mph /  1.6km/h 88% 0.00in /  0mm 0 W/m2
21:49 47.6 °F /  8.7 °C 44.5 °F /  6.9 °C 30.15in /  1020.9hPa Calm     88.9% 0.00in /  0mm 0 W/m2
21:54 47.5 °F /  8.6 °C 44.4 °F /  6.9 °C 30.16in /  1021.2hPa Calm     89% 0.00in /  0mm 0 W/m2
21:59 47.5 °F /  8.6 °C 44.4 °F /  6.9 °C 30.16in /  1021.2hPa Calm     89% 0.00in /  0mm 0 W/m2
22:04 47.4 °F /  8.6 °C 44.3 °F /  6.8 °C 30.16in /  1021.2hPa Calm     89% 0.00in /  0mm 0 W/m2
22:09 47.3 °F /  8.5 °C 44.2 °F /  6.8 °C 30.16in /  1021.2hPa Calm     89% 0.00in /  0mm 0 W/m2
22:14 47.2 °F /  8.4 °C 44.2 °F /  6.8 °C 30.16in /  1021.2hPa Calm   1mph /  1.6km/h 89% 0.00in /  0mm 0 W/m2
22:19 47 °F /  8.3 °C 44 °F /  6.7 °C 30.16in /  1021.2hPa WSW 0.1mph /  0.2km/h 1mph /  1.6km/h 89% 0.00in /  0mm 0 W/m2
22:24 46.9 °F /  8.3 °C 43.9 °F /  6.6 °C 30.15in /  1020.9hPa Calm   1mph /  1.6km/h 89% 0.00in /  0mm 0 W/m2
22:29 46.8 °F /  8.2 °C 43.7 °F /  6.5 °C 30.15in /  1020.9hPa Calm   1mph /  1.6km/h 89% 0.00in /  0mm 0 W/m2
22:34 46.8 °F /  8.2 °C 44.1 °F /  6.7 °C 30.15in /  1020.9hPa Calm     90% 0.00in /  0mm 0 W/m2
22:39 46.6 °F /  8.1 °C 43.9 °F /  6.6 °C 30.15in /  1020.9hPa Calm   1mph /  1.6km/h 90% 0.00in /  0mm 0 W/m2
22:44 46.3 °F /  7.9 °C 43.6 °F /  6.4 °C 30.15in /  1020.9hPa Calm     90% 0.00in /  0mm 0 W/m2
22:49 46.1 °F /  7.8 °C 43.4 °F /  6.3 °C 30.15in /  1020.9hPa Calm     90% 0.00in /  0mm 0 W/m2
22:54 46 °F /  7.8 °C 43.3 °F /  6.3 °C 30.15in /  1020.9hPa Calm     90% 0.00in /  0mm 0 W/m2
22:59 46 °F /  7.8 °C 43.3 °F /  6.3 °C 30.15in /  1020.9hPa Calm     90% 0.00in /  0mm 0 W/m2
23:04 46 °F /  7.8 °C 43.3 °F /  6.3 °C 30.15in /  1020.9hPa Calm     90% 0.00in /  0mm 0 W/m2
23:09 45.9 °F /  7.7 °C 43.2 °F /  6.2 °C 30.15in /  1020.9hPa Calm     90% 0.00in /  0mm 0 W/m2
23:14 45.8 °F /  7.7 °C 43.1 °F /  6.2 °C 30.15in /  1020.9hPa Calm   1mph /  1.6km/h 90% 0.00in /  0mm 0 W/m2
23:19 45.6 °F /  7.6 °C 42.9 °F /  6.1 °C 30.14in /  1020.5hPa Calm     90% 0.00in /  0mm 0 W/m2
23:24 45.6 °F /  7.6 °C 43 °F /  6.1 °C 30.14in /  1020.5hPa Calm     90.6% 0.00in /  0mm 0 W/m2
23:29 45.3 °F /  7.4 °C 42.8 °F /  6 °C 30.14in /  1020.5hPa Calm     91% 0.00in /  0mm 0 W/m2
23:34 45.3 °F /  7.4 °C 42.8 °F /  6 °C 30.14in /  1020.5hPa Calm     91% 0.00in /  0mm 0 W/m2
23:39 45.3 °F /  7.4 °C 42.8 °F /  6 °C 30.14in /  1020.5hPa Calm     91% 0.00in /  0mm 0 W/m2
23:44 45.1 °F /  7.3 °C 42.6 °F /  5.9 °C 30.14in /  1020.5hPa Calm     91% 0.00in /  0mm 0 W/m2
23:49 45 °F /  7.2 °C 42.4 °F /  5.8 °C 30.14in /  1020.5hPa Calm     91% 0.00in /  0mm 0 W/m2
23:54 44.8 °F /  7.1 °C 42.3 °F /  5.7 °C 30.14in /  1020.5hPa Calm     91% 0.00in /  0mm 0 W/m2
23:59 44.8 °F /  7.1 °C 42.3 °F /  5.7 °C 30.14in /  1020.5hPa Calm     91% 0.00in /  0mm 0 W/m2
Bath Spa Weather
Compliments of Weather Underground - 2 mb